sensor_id;sensor_type;location;lat;lon;timestamp;temperature;humidity
7494;DHT22;3788;49.902;8.590;2022-11-20T00:00:05;3.50;99.90
7494;DHT22;3788;49.902;8.590;2022-11-20T00:02:32;3.50;99.90
7494;DHT22;3788;49.902;8.590;2022-11-20T00:04:59;3.60;99.90
7494;DHT22;3788;49.902;8.590;2022-11-20T00:07:25;3.60;99.90
7494;DHT22;3788;49.902;8.590;2022-11-20T00:09:52;3.60;99.90
7494;DHT22;3788;49.902;8.590;2022-11-20T00:12:19;3.60;99.90
7494;DHT22;3788;49.902;8.590;2022-11-20T00:14:45;3.60;99.90
7494;DHT22;3788;49.902;8.590;2022-11-20T00:17:13;3.60;99.90
7494;DHT22;3788;49.902;8.590;2022-11-20T00:19:40;3.60;99.90
7494;DHT22;3788;49.902;8.590;2022-11-20T00:22:06;3.60;99.90
7494;DHT22;3788;49.902;8.590;2022-11-20T00:24:33;3.60;99.90
7494;DHT22;3788;49.902;8.590;2022-11-20T00:27:00;3.70;99.90
7494;DHT22;3788;49.902;8.590;2022-11-20T00:29:26;3.70;99.90
7494;DHT22;3788;49.902;8.590;2022-11-20T00:31:53;3.70;99.90
7494;DHT22;3788;49.902;8.590;2022-11-20T00:34:22;3.70;99.90
7494;DHT22;3788;49.902;8.590;2022-11-20T00:36:49;3.60;99.90
7494;DHT22;3788;49.902;8.590;2022-11-20T00:39:16;3.60;99.90
7494;DHT22;3788;49.902;8.590;2022-11-20T00:41:42;3.60;99.90
7494;DHT22;3788;49.902;8.590;2022-11-20T00:44:09;3.60;99.90
7494;DHT22;3788;49.902;8.590;2022-11-20T00:46:35;3.60;99.90
7494;DHT22;3788;49.902;8.590;2022-11-20T00:49:02;3.60;99.90
7494;DHT22;3788;49.902;8.590;2022-11-20T00:51:30;3.60;99.90
7494;DHT22;3788;49.902;8.590;2022-11-20T00:53:57;3.60;99.90
7494;DHT22;3788;49.902;8.590;2022-11-20T00:56:25;3.60;99.90
7494;DHT22;3788;49.902;8.590;2022-11-20T00:58:52;3.60;99.90
7494;DHT22;3788;49.902;8.590;2022-11-20T01:01:21;3.60;99.90
7494;DHT22;3788;49.902;8.590;2022-11-20T01:03:50;3.60;99.90
7494;DHT22;3788;49.902;8.590;2022-11-20T01:06:19;3.50;99.90
7494;DHT22;3788;49.902;8.590;2022-11-20T01:08:48;3.60;99.90
7494;DHT22;3788;49.902;8.590;2022-11-20T01:11:20;3.60;99.90
7494;DHT22;3788;49.902;8.590;2022-11-20T01:13:48;3.60;99.90
7494;DHT22;3788;49.902;8.590;2022-11-20T01:16:17;3.60;99.90
7494;DHT22;3788;49.902;8.590;2022-11-20T01:18:46;3.60;99.90
7494;DHT22;3788;49.902;8.590;2022-11-20T01:21:17;3.60;99.90
7494;DHT22;3788;49.902;8.590;2022-11-20T01:23:44;3.60;99.90
7494;DHT22;3788;49.902;8.590;2022-11-20T01:26:14;3.60;99.90
7494;DHT22;3788;49.902;8.590;2022-11-20T01:28:42;3.60;99.90
7494;DHT22;3788;49.902;8.590;2022-11-20T01:31:13;3.60;99.90
7494;DHT22;3788;49.902;8.590;2022-11-20T01:33:40;3.60;99.90
7494;DHT22;3788;49.902;8.590;2022-11-20T01:36:08;3.60;99.90
7494;DHT22;3788;49.902;8.590;2022-11-20T01:38:35;3.60;99.90
7494;DHT22;3788;49.902;8.590;2022-11-20T01:41:02;3.60;99.90
7494;DHT22;3788;49.902;8.590;2022-11-20T01:43:30;3.70;99.90
7494;DHT22;3788;49.902;8.590;2022-11-20T01:46:06;3.70;99.90
7494;DHT22;3788;49.902;8.590;2022-11-20T01:48:38;3.70;99.90
7494;DHT22;3788;49.902;8.590;2022-11-20T01:51:12;3.60;99.90
7494;DHT22;3788;49.902;8.590;2022-11-20T01:53:39;3.70;99.90
7494;DHT22;3788;49.902;8.590;2022-11-20T01:56:09;3.70;99.90
7494;DHT22;3788;49.902;8.590;2022-11-20T01:58:43;3.60;99.90
7494;DHT22;3788;49.902;8.590;2022-11-20T02:01:11;3.60;99.90
7494;DHT22;3788;49.902;8.590;2022-11-20T02:03:39;3.60;99.90
7494;DHT22;3788;49.902;8.590;2022-11-20T02:06:11;3.60;99.90
7494;DHT22;3788;49.902;8.590;2022-11-20T02:08:39;3.60;99.90
7494;DHT22;3788;49.902;8.590;2022-11-20T02:11:06;3.60;99.90
7494;DHT22;3788;49.902;8.590;2022-11-20T02:13:33;3.50;99.90
7494;DHT22;3788;49.902;8.590;2022-11-20T02:16:15;3.50;99.90
7494;DHT22;3788;49.902;8.590;2022-11-20T02:18:42;3.60;99.90
7494;DHT22;3788;49.902;8.590;2022-11-20T02:21:15;3.60;99.90
7494;DHT22;3788;49.902;8.590;2022-11-20T02:23:59;3.60;99.90
7494;DHT22;3788;49.902;8.590;2022-11-20T02:26:28;3.60;99.90
7494;DHT22;3788;49.902;8.590;2022-11-20T02:28:55;3.60;99.90
7494;DHT22;3788;49.902;8.590;2022-11-20T02:31:22;3.60;99.90
7494;DHT22;3788;49.902;8.590;2022-11-20T02:33:54;3.60;99.90
7494;DHT22;3788;49.902;8.590;2022-11-20T02:36:21;3.60;99.90
7494;DHT22;3788;49.902;8.590;2022-11-20T02:38:50;3.60;99.90
7494;DHT22;3788;49.902;8.590;2022-11-20T02:41:18;3.60;99.90
7494;DHT22;3788;49.902;8.590;2022-11-20T02:43:45;3.60;99.90
7494;DHT22;3788;49.902;8.590;2022-11-20T02:46:12;3.70;99.90
7494;DHT22;3788;49.902;8.590;2022-11-20T02:48:39;3.70;99.90
7494;DHT22;3788;49.902;8.590;2022-11-20T02:51:05;3.70;99.90
7494;DHT22;3788;49.902;8.590;2022-11-20T02:53:32;3.70;99.90
7494;DHT22;3788;49.902;8.590;2022-11-20T02:55:59;3.70;99.90
7494;DHT22;3788;49.902;8.590;2022-11-20T02:58:27;3.70;99.90
7494;DHT22;3788;49.902;8.590;2022-11-20T03:00:53;3.80;99.90
7494;DHT22;3788;49.902;8.590;2022-11-20T03:03:20;3.80;99.90
7494;DHT22;3788;49.902;8.590;2022-11-20T03:05:47;3.80;99.90
7494;DHT22;3788;49.902;8.590;2022-11-20T03:08:13;3.80;99.90
7494;DHT22;3788;49.902;8.590;2022-11-20T03:10:40;3.80;99.90
7494;DHT22;3788;49.902;8.590;2022-11-20T03:13:07;3.80;99.90
7494;DHT22;3788;49.902;8.590;2022-11-20T03:15:36;3.80;99.90
7494;DHT22;3788;49.902;8.590;2022-11-20T03:18:04;3.80;99.90
7494;DHT22;3788;49.902;8.590;2022-11-20T03:20:32;3.90;99.90
7494;DHT22;3788;49.902;8.590;2022-11-20T03:22:59;3.90;99.90
7494;DHT22;3788;49.902;8.590;2022-11-20T03:25:26;4.00;99.90
7494;DHT22;3788;49.902;8.590;2022-11-20T03:27:53;4.00;99.90
7494;DHT22;3788;49.902;8.590;2022-11-20T03:30:20;4.00;99.90
7494;DHT22;3788;49.902;8.590;2022-11-20T03:32:49;4.00;99.90
7494;DHT22;3788;49.902;8.590;2022-11-20T03:35:19;4.10;99.90
7494;DHT22;3788;49.902;8.590;2022-11-20T03:37:45;4.00;99.90
7494;DHT22;3788;49.902;8.590;2022-11-20T03:40:12;4.10;99.90
7494;DHT22;3788;49.902;8.590;2022-11-20T03:42:39;4.10;99.90
7494;DHT22;3788;49.902;8.590;2022-11-20T03:45:12;4.10;99.90
7494;DHT22;3788;49.902;8.590;2022-11-20T03:47:39;4.10;99.90
7494;DHT22;3788;49.902;8.590;2022-11-20T03:50:08;4.10;99.90
7494;DHT22;3788;49.902;8.590;2022-11-20T03:52:35;4.00;99.90
7494;DHT22;3788;49.902;8.590;2022-11-20T03:55:02;4.10;99.90
7494;DHT22;3788;49.902;8.590;2022-11-20T03:57:28;4.10;99.90
7494;DHT22;3788;49.902;8.590;2022-11-20T03:59:55;4.10;99.90
7494;DHT22;3788;49.902;8.590;2022-11-20T04:02:22;4.10;99.90
7494;DHT22;3788;49.902;8.590;2022-11-20T04:04:49;4.10;99.90
7494;DHT22;3788;49.902;8.590;2022-11-20T04:07:17;4.10;99.90
7494;DHT22;3788;49.902;8.590;2022-11-20T04:09:43;4.10;99.90
7494;DHT22;3788;49.902;8.590;2022-11-20T04:12:10;4.10;99.90
7494;DHT22;3788;49.902;8.590;2022-11-20T04:14:37;4.10;99.90
7494;DHT22;3788;49.902;8.590;2022-11-20T04:17:04;4.10;99.90
7494;DHT22;3788;49.902;8.590;2022-11-20T04:19:30;4.10;99.90
7494;DHT22;3788;49.902;8.590;2022-11-20T04:21:57;4.10;99.90
7494;DHT22;3788;49.902;8.590;2022-11-20T04:24:26;4.10;99.90
7494;DHT22;3788;49.902;8.590;2022-11-20T04:26:52;4.10;99.90
7494;DHT22;3788;49.902;8.590;2022-11-20T04:29:19;4.10;99.90
7494;DHT22;3788;49.902;8.590;2022-11-20T04:31:46;4.10;99.90
7494;DHT22;3788;49.902;8.590;2022-11-20T04:34:13;4.20;99.90
7494;DHT22;3788;49.902;8.590;2022-11-20T04:36:40;4.20;99.90
7494;DHT22;3788;49.902;8.590;2022-11-20T04:39:12;4.20;99.90
7494;DHT22;3788;49.902;8.590;2022-11-20T04:41:41;4.20;99.90
7494;DHT22;3788;49.902;8.590;2022-11-20T04:44:08;4.20;99.90
7494;DHT22;3788;49.902;8.590;2022-11-20T04:46:37;4.30;99.90
7494;DHT22;3788;49.902;8.590;2022-11-20T04:49:04;4.20;99.90
7494;DHT22;3788;49.902;8.590;2022-11-20T04:51:31;4.20;99.90
7494;DHT22;3788;49.902;8.590;2022-11-20T04:53:58;4.30;99.90
7494;DHT22;3788;49.902;8.590;2022-11-20T04:56:25;4.30;99.90
7494;DHT22;3788;49.902;8.590;2022-11-20T04:58:53;4.30;99.90
7494;DHT22;3788;49.902;8.590;2022-11-20T05:01:22;4.40;99.90
7494;DHT22;3788;49.902;8.590;2022-11-20T05:03:49;4.40;99.90
7494;DHT22;3788;49.902;8.590;2022-11-20T05:06:18;4.40;99.90
7494;DHT22;3788;49.902;8.590;2022-11-20T05:08:45;4.40;99.90
7494;DHT22;3788;49.902;8.590;2022-11-20T05:11:13;4.30;99.90
7494;DHT22;3788;49.902;8.590;2022-11-20T05:13:40;4.30;99.90
7494;DHT22;3788;49.902;8.590;2022-11-20T05:16:10;4.30;99.90
7494;DHT22;3788;49.902;8.590;2022-11-20T05:18:37;4.30;99.90
7494;DHT22;3788;49.902;8.590;2022-11-20T05:21:05;4.30;99.90
7494;DHT22;3788;49.902;8.590;2022-11-20T05:23:32;4.30;99.90
7494;DHT22;3788;49.902;8.590;2022-11-20T05:26:00;4.30;99.90
7494;DHT22;3788;49.902;8.590;2022-11-20T05:28:29;4.30;99.90
7494;DHT22;3788;49.902;8.590;2022-11-20T05:31:04;4.30;99.90
7494;DHT22;3788;49.902;8.590;2022-11-20T05:33:32;4.30;99.90
7494;DHT22;3788;49.902;8.590;2022-11-20T05:35:59;4.30;99.90
7494;DHT22;3788;49.902;8.590;2022-11-20T05:38:26;4.30;99.90
7494;DHT22;3788;49.902;8.590;2022-11-20T05:40:53;4.30;99.90
7494;DHT22;3788;49.902;8.590;2022-11-20T05:43:19;4.40;99.90
7494;DHT22;3788;49.902;8.590;2022-11-20T05:45:52;4.40;99.90
7494;DHT22;3788;49.902;8.590;2022-11-20T05:48:19;4.40;99.90
7494;DHT22;3788;49.902;8.590;2022-11-20T05:50:47;4.40;99.90
7494;DHT22;3788;49.902;8.590;2022-11-20T05:53:13;4.40;99.90
7494;DHT22;3788;49.902;8.590;2022-11-20T05:55:40;4.40;99.90
7494;DHT22;3788;49.902;8.590;2022-11-20T05:58:07;4.40;99.90
7494;DHT22;3788;49.902;8.590;2022-11-20T06:00:33;4.30;99.90
7494;DHT22;3788;49.902;8.590;2022-11-20T06:03:00;4.30;99.90
7494;DHT22;3788;49.902;8.590;2022-11-20T06:05:27;4.30;99.90
7494;DHT22;3788;49.902;8.590;2022-11-20T06:07:55;4.30;99.90
7494;DHT22;3788;49.902;8.590;2022-11-20T06:10:22;4.40;99.90
7494;DHT22;3788;49.902;8.590;2022-11-20T06:12:48;4.40;99.90
7494;DHT22;3788;49.902;8.590;2022-11-20T06:15:15;4.40;99.90
7494;DHT22;3788;49.902;8.590;2022-11-20T06:17:42;4.30;99.90
7494;DHT22;3788;49.902;8.590;2022-11-20T06:20:09;4.30;99.90
7494;DHT22;3788;49.902;8.590;2022-11-20T06:22:36;4.30;99.90
7494;DHT22;3788;49.902;8.590;2022-11-20T06:25:04;4.30;99.90
7494;DHT22;3788;49.902;8.590;2022-11-20T06:27:31;4.30;99.90
7494;DHT22;3788;49.902;8.590;2022-11-20T06:29:58;4.30;99.90
7494;DHT22;3788;49.902;8.590;2022-11-20T06:32:24;4.30;99.90
7494;DHT22;3788;49.902;8.590;2022-11-20T06:34:51;4.30;99.90
7494;DHT22;3788;49.902;8.590;2022-11-20T06:37:18;4.30;99.90
7494;DHT22;3788;49.902;8.590;2022-11-20T06:39:45;4.30;99.90
7494;DHT22;3788;49.902;8.590;2022-11-20T06:42:13;4.30;99.90
7494;DHT22;3788;49.902;8.590;2022-11-20T06:44:40;4.30;99.90
7494;DHT22;3788;49.902;8.590;2022-11-20T06:47:06;4.30;99.90
7494;DHT22;3788;49.902;8.590;2022-11-20T06:49:33;4.30;99.90
7494;DHT22;3788;49.902;8.590;2022-11-20T06:52:02;4.30;99.90
7494;DHT22;3788;49.902;8.590;2022-11-20T06:54:29;4.30;99.90
7494;DHT22;3788;49.902;8.590;2022-11-20T06:56:56;4.30;99.90
7494;DHT22;3788;49.902;8.590;2022-11-20T06:59:24;4.30;99.90
7494;DHT22;3788;49.902;8.590;2022-11-20T07:01:50;4.30;99.90
7494;DHT22;3788;49.902;8.590;2022-11-20T07:04:17;4.30;99.90
7494;DHT22;3788;49.902;8.590;2022-11-20T07:06:44;4.20;99.90
7494;DHT22;3788;49.902;8.590;2022-11-20T07:09:11;4.20;99.90
7494;DHT22;3788;49.902;8.590;2022-11-20T07:11:37;4.20;99.90
7494;DHT22;3788;49.902;8.590;2022-11-20T07:14:04;4.20;99.90
7494;DHT22;3788;49.902;8.590;2022-11-20T07:16:32;4.20;99.90
7494;DHT22;3788;49.902;8.590;2022-11-20T07:18:59;4.20;99.90
7494;DHT22;3788;49.902;8.590;2022-11-20T07:21:26;4.10;99.90
7494;DHT22;3788;49.902;8.590;2022-11-20T07:23:53;4.20;99.90
7494;DHT22;3788;49.902;8.590;2022-11-20T07:26:20;4.20;99.90
7494;DHT22;3788;49.902;8.590;2022-11-20T07:28:47;4.10;99.90
7494;DHT22;3788;49.902;8.590;2022-11-20T07:31:14;4.10;99.90
7494;DHT22;3788;49.902;8.590;2022-11-20T07:33:42;4.10;99.90
7494;DHT22;3788;49.902;8.590;2022-11-20T07:36:09;4.20;99.90
7494;DHT22;3788;49.902;8.590;2022-11-20T07:38:37;4.20;99.90
7494;DHT22;3788;49.902;8.590;2022-11-20T07:41:04;4.20;99.90
7494;DHT22;3788;49.902;8.590;2022-11-20T07:43:30;4.10;99.90
7494;DHT22;3788;49.902;8.590;2022-11-20T07:45:58;4.10;99.90
7494;DHT22;3788;49.902;8.590;2022-11-20T07:48:25;4.20;99.90
7494;DHT22;3788;49.902;8.590;2022-11-20T07:50:54;4.20;99.90
7494;DHT22;3788;49.902;8.590;2022-11-20T07:53:22;4.20;99.90
7494;DHT22;3788;49.902;8.590;2022-11-20T07:55:48;4.20;99.90
7494;DHT22;3788;49.902;8.590;2022-11-20T07:58:17;4.30;99.90
7494;DHT22;3788;49.902;8.590;2022-11-20T08:00:44;4.30;99.90
7494;DHT22;3788;49.902;8.590;2022-11-20T08:03:11;4.40;99.90
7494;DHT22;3788;49.902;8.590;2022-11-20T08:05:38;4.40;99.90
7494;DHT22;3788;49.902;8.590;2022-11-20T08:08:06;4.40;99.90
7494;DHT22;3788;49.902;8.590;2022-11-20T08:10:33;4.50;99.90
7494;DHT22;3788;49.902;8.590;2022-11-20T08:13:00;4.50;99.90
7494;DHT22;3788;49.902;8.590;2022-11-20T08:15:48;4.60;99.90
7494;DHT22;3788;49.902;8.590;2022-11-20T08:18:18;4.60;99.90
7494;DHT22;3788;49.902;8.590;2022-11-20T08:20:44;4.70;99.90
7494;DHT22;3788;49.902;8.590;2022-11-20T08:23:13;4.70;99.90
7494;DHT22;3788;49.902;8.590;2022-11-20T08:25:40;4.90;99.90
7494;DHT22;3788;49.902;8.590;2022-11-20T08:28:08;5.00;99.90
7494;DHT22;3788;49.902;8.590;2022-11-20T08:30:36;5.00;99.90
7494;DHT22;3788;49.902;8.590;2022-11-20T08:33:05;5.10;99.90
7494;DHT22;3788;49.902;8.590;2022-11-20T08:35:33;5.10;99.90
7494;DHT22;3788;49.902;8.590;2022-11-20T08:38:01;5.10;99.90
7494;DHT22;3788;49.902;8.590;2022-11-20T08:40:29;5.10;99.90
7494;DHT22;3788;49.902;8.590;2022-11-20T08:42:56;5.10;99.90
7494;DHT22;3788;49.902;8.590;2022-11-20T08:45:23;5.10;99.90
7494;DHT22;3788;49.902;8.590;2022-11-20T08:47:50;5.20;99.90
7494;DHT22;3788;49.902;8.590;2022-11-20T08:50:17;5.30;99.90
7494;DHT22;3788;49.902;8.590;2022-11-20T08:52:44;5.40;99.90
7494;DHT22;3788;49.902;8.590;2022-11-20T08:55:11;5.40;99.90
7494;DHT22;3788;49.902;8.590;2022-11-20T08:57:40;5.50;99.90
7494;DHT22;3788;49.902;8.590;2022-11-20T09:00:07;5.60;99.90
7494;DHT22;3788;49.902;8.590;2022-11-20T09:02:35;5.80;99.90
7494;DHT22;3788;49.902;8.590;2022-11-20T09:05:01;5.80;99.90
7494;DHT22;3788;49.902;8.590;2022-11-20T09:07:29;5.90;99.90
7494;DHT22;3788;49.902;8.590;2022-11-20T09:09:55;5.90;99.90
7494;DHT22;3788;49.902;8.590;2022-11-20T09:12:22;5.90;99.90
7494;DHT22;3788;49.902;8.590;2022-11-20T09:14:50;5.90;99.90
7494;DHT22;3788;49.902;8.590;2022-11-20T09:17:17;5.80;99.90
7494;DHT22;3788;49.902;8.590;2022-11-20T09:19:45;5.80;99.90
7494;DHT22;3788;49.902;8.590;2022-11-20T09:22:12;5.80;99.90
7494;DHT22;3788;49.902;8.590;2022-11-20T09:24:39;5.80;99.90
7494;DHT22;3788;49.902;8.590;2022-11-20T09:27:07;5.70;99.90
7494;DHT22;3788;49.902;8.590;2022-11-20T09:29:33;5.70;99.90
7494;DHT22;3788;49.902;8.590;2022-11-20T09:32:01;5.70;99.90
7494;DHT22;3788;49.902;8.590;2022-11-20T09:34:28;5.70;99.90
7494;DHT22;3788;49.902;8.590;2022-11-20T09:36:55;5.70;99.90
7494;DHT22;3788;49.902;8.590;2022-11-20T09:39:21;5.70;99.90
7494;DHT22;3788;49.902;8.590;2022-11-20T09:42:03;5.70;99.90
7494;DHT22;3788;49.902;8.590;2022-11-20T09:44:40;5.70;99.90
7494;DHT22;3788;49.902;8.590;2022-11-20T09:47:23;5.70;99.90
7494;DHT22;3788;49.902;8.590;2022-11-20T09:50:00;5.80;99.90
7494;DHT22;3788;49.902;8.590;2022-11-20T09:52:35;5.80;99.90
7494;DHT22;3788;49.902;8.590;2022-11-20T09:55:07;5.80;99.90
7494;DHT22;3788;49.902;8.590;2022-11-20T09:57:36;5.80;99.90
7494;DHT22;3788;49.902;8.590;2022-11-20T10:00:09;5.80;99.90
7494;DHT22;3788;49.902;8.590;2022-11-20T10:02:43;5.70;99.90
7494;DHT22;3788;49.902;8.590;2022-11-20T10:05:15;5.70;99.90
7494;DHT22;3788;49.902;8.590;2022-11-20T10:07:47;5.70;99.90
7494;DHT22;3788;49.902;8.590;2022-11-20T10:10:15;5.70;99.90
7494;DHT22;3788;49.902;8.590;2022-11-20T10:12:53;5.70;99.90
7494;DHT22;3788;49.902;8.590;2022-11-20T10:15:31;5.70;99.90
7494;DHT22;3788;49.902;8.590;2022-11-20T10:18:19;5.80;99.90
7494;DHT22;3788;49.902;8.590;2022-11-20T10:20:53;5.80;99.90
7494;DHT22;3788;49.902;8.590;2022-11-20T10:23:45;5.90;99.90
7494;DHT22;3788;49.902;8.590;2022-11-20T10:26:21;6.00;99.90
7494;DHT22;3788;49.902;8.590;2022-11-20T10:29:00;6.00;99.90
7494;DHT22;3788;49.902;8.590;2022-11-20T10:31:32;6.00;99.90
7494;DHT22;3788;49.902;8.590;2022-11-20T10:34:06;6.10;99.90
7494;DHT22;3788;49.902;8.590;2022-11-20T10:36:35;6.00;99.90
7494;DHT22;3788;49.902;8.590;2022-11-20T10:39:07;6.10;99.90
7494;DHT22;3788;49.902;8.590;2022-11-20T10:41:42;6.00;99.90
7494;DHT22;3788;49.902;8.590;2022-11-20T10:44:13;6.10;99.90
7494;DHT22;3788;49.902;8.590;2022-11-20T10:47:03;6.00;99.90
7494;DHT22;3788;49.902;8.590;2022-11-20T10:49:32;6.00;99.90
7494;DHT22;3788;49.902;8.590;2022-11-20T10:52:06;6.00;99.90
7494;DHT22;3788;49.902;8.590;2022-11-20T10:54:42;6.00;99.90
7494;DHT22;3788;49.902;8.590;2022-11-20T10:57:22;5.90;99.90
7494;DHT22;3788;49.902;8.590;2022-11-20T11:00:02;5.90;99.90
7494;DHT22;3788;49.902;8.590;2022-11-20T11:02:35;5.90;99.90
7494;DHT22;3788;49.902;8.590;2022-11-20T11:05:12;5.90;99.90
7494;DHT22;3788;49.902;8.590;2022-11-20T11:07:41;5.90;99.90
7494;DHT22;3788;49.902;8.590;2022-11-20T11:10:15;5.90;99.90
7494;DHT22;3788;49.902;8.590;2022-11-20T11:12:44;5.90;99.90
7494;DHT22;3788;49.902;8.590;2022-11-20T11:15:15;5.90;99.90
7494;DHT22;3788;49.902;8.590;2022-11-20T11:17:50;5.90;99.90
7494;DHT22;3788;49.902;8.590;2022-11-20T11:20:20;5.90;99.90
7494;DHT22;3788;49.902;8.590;2022-11-20T11:22:49;5.90;99.90
7494;DHT22;3788;49.902;8.590;2022-11-20T11:25:34;5.90;99.90
7494;DHT22;3788;49.902;8.590;2022-11-20T11:28:03;5.90;99.90
7494;DHT22;3788;49.902;8.590;2022-11-20T11:30:41;5.90;99.90
7494;DHT22;3788;49.902;8.590;2022-11-20T11:33:10;6.00;99.90
7494;DHT22;3788;49.902;8.590;2022-11-20T11:35:44;6.00;99.90
7494;DHT22;3788;49.902;8.590;2022-11-20T11:38:15;6.10;99.90
7494;DHT22;3788;49.902;8.590;2022-11-20T11:40:43;6.20;99.90
7494;DHT22;3788;49.902;8.590;2022-11-20T11:43:19;6.30;99.90
7494;DHT22;3788;49.902;8.590;2022-11-20T11:46:15;6.30;99.90
7494;DHT22;3788;49.902;8.590;2022-11-20T11:48:55;6.30;99.90
7494;DHT22;3788;49.902;8.590;2022-11-20T11:51:25;6.30;99.90
7494;DHT22;3788;49.902;8.590;2022-11-20T11:53:55;6.30;99.90
7494;DHT22;3788;49.902;8.590;2022-11-20T11:56:23;6.20;99.90
7494;DHT22;3788;49.902;8.590;2022-11-20T11:58:51;6.30;99.90
7494;DHT22;3788;49.902;8.590;2022-11-20T12:01:27;6.30;99.90
7494;DHT22;3788;49.902;8.590;2022-11-20T12:04:03;6.40;99.90
7494;DHT22;3788;49.902;8.590;2022-11-20T12:06:33;6.40;99.90
7494;DHT22;3788;49.902;8.590;2022-11-20T12:09:03;6.40;99.90
7494;DHT22;3788;49.902;8.590;2022-11-20T12:11:35;6.40;99.90
7494;DHT22;3788;49.902;8.590;2022-11-20T12:14:10;6.40;99.90
7494;DHT22;3788;49.902;8.590;2022-11-20T12:16:39;6.50;99.90
7494;DHT22;3788;49.902;8.590;2022-11-20T12:19:10;6.50;99.90
7494;DHT22;3788;49.902;8.590;2022-11-20T12:21:47;6.50;99.90
7494;DHT22;3788;49.902;8.590;2022-11-20T12:24:39;6.50;99.90
7494;DHT22;3788;49.902;8.590;2022-11-20T12:30:13;6.40;99.90
7494;DHT22;3788;49.902;8.590;2022-11-20T12:32:58;6.40;99.90
7494;DHT22;3788;49.902;8.590;2022-11-20T12:35:42;6.40;99.90
7494;DHT22;3788;49.902;8.590;2022-11-20T12:38:34;6.50;99.90
7494;DHT22;3788;49.902;8.590;2022-11-20T12:41:11;6.50;99.90
7494;DHT22;3788;49.902;8.590;2022-11-20T12:44:08;6.60;99.90
7494;DHT22;3788;49.902;8.590;2022-11-20T12:47:11;6.70;99.90
7494;DHT22;3788;49.902;8.590;2022-11-20T12:49:50;6.70;99.90
7494;DHT22;3788;49.902;8.590;2022-11-20T12:52:30;6.70;99.90
7494;DHT22;3788;49.902;8.590;2022-11-20T12:55:23;6.70;99.90
7494;DHT22;3788;49.902;8.590;2022-11-20T12:57:57;6.70;99.90
7494;DHT22;3788;49.902;8.590;2022-11-20T13:00:25;6.70;99.90
7494;DHT22;3788;49.902;8.590;2022-11-20T13:03:23;6.70;99.90
7494;DHT22;3788;49.902;8.590;2022-11-20T13:05:59;6.70;99.90
7494;DHT22;3788;49.902;8.590;2022-11-20T13:08:30;6.70;99.90
7494;DHT22;3788;49.902;8.590;2022-11-20T13:11:05;6.70;99.90
7494;DHT22;3788;49.902;8.590;2022-11-20T13:13:43;6.60;99.90
7494;DHT22;3788;49.902;8.590;2022-11-20T13:16:17;6.60;99.90
7494;DHT22;3788;49.902;8.590;2022-11-20T13:18:45;6.50;99.90
7494;DHT22;3788;49.902;8.590;2022-11-20T13:21:16;6.50;99.90
7494;DHT22;3788;49.902;8.590;2022-11-20T13:23:44;6.50;99.90
7494;DHT22;3788;49.902;8.590;2022-11-20T13:26:18;6.50;99.90
7494;DHT22;3788;49.902;8.590;2022-11-20T13:28:46;6.50;99.90
7494;DHT22;3788;49.902;8.590;2022-11-20T13:31:38;6.50;99.90
7494;DHT22;3788;49.902;8.590;2022-11-20T13:34:12;6.60;99.90
7494;DHT22;3788;49.902;8.590;2022-11-20T13:36:49;6.70;99.90
7494;DHT22;3788;49.902;8.590;2022-11-20T13:39:24;6.70;99.90
7494;DHT22;3788;49.902;8.590;2022-11-20T13:41:56;6.80;99.90
7494;DHT22;3788;49.902;8.590;2022-11-20T13:44:26;6.90;99.90
7494;DHT22;3788;49.902;8.590;2022-11-20T13:46:55;6.90;99.90
7494;DHT22;3788;49.902;8.590;2022-11-20T13:49:26;7.00;99.90
7494;DHT22;3788;49.902;8.590;2022-11-20T13:52:02;7.00;99.90
7494;DHT22;3788;49.902;8.590;2022-11-20T13:54:49;7.10;99.90
7494;DHT22;3788;49.902;8.590;2022-11-20T13:57:47;7.20;99.90
7494;DHT22;3788;49.902;8.590;2022-11-20T14:00:17;7.20;99.90
7494;DHT22;3788;49.902;8.590;2022-11-20T14:02:59;7.20;99.90
7494;DHT22;3788;49.902;8.590;2022-11-20T14:05:27;7.30;99.90
7494;DHT22;3788;49.902;8.590;2022-11-20T14:07:54;7.30;99.90
7494;DHT22;3788;49.902;8.590;2022-11-20T14:10:25;7.30;99.90
7494;DHT22;3788;49.902;8.590;2022-11-20T14:12:53;7.40;99.90
7494;DHT22;3788;49.902;8.590;2022-11-20T14:15:29;7.40;99.90
7494;DHT22;3788;49.902;8.590;2022-11-20T14:17:56;7.40;99.90
7494;DHT22;3788;49.902;8.590;2022-11-20T14:20:25;7.40;99.90
7494;DHT22;3788;49.902;8.590;2022-11-20T14:22:53;7.40;99.90
7494;DHT22;3788;49.902;8.590;2022-11-20T14:25:22;7.40;99.90
7494;DHT22;3788;49.902;8.590;2022-11-20T14:27:54;7.40;99.90
7494;DHT22;3788;49.902;8.590;2022-11-20T14:30:24;7.40;99.90
7494;DHT22;3788;49.902;8.590;2022-11-20T14:32:53;7.40;99.90
7494;DHT22;3788;49.902;8.590;2022-11-20T14:35:24;7.40;99.90
7494;DHT22;3788;49.902;8.590;2022-11-20T14:37:51;7.40;99.90
7494;DHT22;3788;49.902;8.590;2022-11-20T14:40:26;7.30;99.90
7494;DHT22;3788;49.902;8.590;2022-11-20T14:42:55;7.30;99.90
7494;DHT22;3788;49.902;8.590;2022-11-20T14:45:23;7.30;99.90
7494;DHT22;3788;49.902;8.590;2022-11-20T14:47:55;7.40;99.90
7494;DHT22;3788;49.902;8.590;2022-11-20T14:50:25;7.30;99.90
7494;DHT22;3788;49.902;8.590;2022-11-20T14:52:54;7.30;99.90
7494;DHT22;3788;49.902;8.590;2022-11-20T14:55:29;7.30;99.90
7494;DHT22;3788;49.902;8.590;2022-11-20T14:58:00;7.30;99.90
7494;DHT22;3788;49.902;8.590;2022-11-20T15:00:28;7.20;99.90
7494;DHT22;3788;49.902;8.590;2022-11-20T15:02:55;7.20;99.90
7494;DHT22;3788;49.902;8.590;2022-11-20T15:05:25;7.20;99.90
7494;DHT22;3788;49.902;8.590;2022-11-20T15:08:05;7.20;99.90
7494;DHT22;3788;49.902;8.590;2022-11-20T15:10:32;7.30;99.90
7494;DHT22;3788;49.902;8.590;2022-11-20T15:13:03;7.30;99.90
7494;DHT22;3788;49.902;8.590;2022-11-20T15:15:35;7.30;99.90
7494;DHT22;3788;49.902;8.590;2022-11-20T15:18:02;7.20;99.90
7494;DHT22;3788;49.902;8.590;2022-11-20T15:20:31;7.20;99.90
7494;DHT22;3788;49.902;8.590;2022-11-20T15:22:58;7.20;99.90
7494;DHT22;3788;49.902;8.590;2022-11-20T15:25:26;7.10;99.90
7494;DHT22;3788;49.902;8.590;2022-11-20T15:27:55;7.10;99.90
7494;DHT22;3788;49.902;8.590;2022-11-20T15:30:24;7.10;99.90
7494;DHT22;3788;49.902;8.590;2022-11-20T15:32:51;7.00;99.90
7494;DHT22;3788;49.902;8.590;2022-11-20T15:35:18;7.00;99.90
7494;DHT22;3788;49.902;8.590;2022-11-20T15:37:44;7.00;99.90
7494;DHT22;3788;49.902;8.590;2022-11-20T15:40:11;7.00;99.90
7494;DHT22;3788;49.902;8.590;2022-11-20T15:42:38;7.00;99.90
7494;DHT22;3788;49.902;8.590;2022-11-20T15:45:28;7.00;99.90
7494;DHT22;3788;49.902;8.590;2022-11-20T15:47:55;7.00;99.90
7494;DHT22;3788;49.902;8.590;2022-11-20T15:50:22;7.00;99.90
7494;DHT22;3788;49.902;8.590;2022-11-20T15:52:51;7.00;99.90
7494;DHT22;3788;49.902;8.590;2022-11-20T15:55:17;7.00;99.90
7494;DHT22;3788;49.902;8.590;2022-11-20T15:57:44;7.00;99.90
7494;DHT22;3788;49.902;8.590;2022-11-20T16:00:12;7.00;99.90
7494;DHT22;3788;49.902;8.590;2022-11-20T16:02:40;7.00;99.90
7494;DHT22;3788;49.902;8.590;2022-11-20T16:05:10;7.00;99.90
7494;DHT22;3788;49.902;8.590;2022-11-20T16:07:37;7.10;99.90
7494;DHT22;3788;49.902;8.590;2022-11-20T16:10:05;7.10;99.90
7494;DHT22;3788;49.902;8.590;2022-11-20T16:12:31;7.00;99.90
7494;DHT22;3788;49.902;8.590;2022-11-20T16:15:16;7.00;99.90
7494;DHT22;3788;49.902;8.590;2022-11-20T16:18:02;7.00;99.90
7494;DHT22;3788;49.902;8.590;2022-11-20T16:20:29;7.00;99.90
7494;DHT22;3788;49.902;8.590;2022-11-20T16:22:56;6.90;99.90
7494;DHT22;3788;49.902;8.590;2022-11-20T16:25:22;6.90;99.90
7494;DHT22;3788;49.902;8.590;2022-11-20T16:27:49;6.90;99.90
7494;DHT22;3788;49.902;8.590;2022-11-20T16:30:16;6.90;99.90
7494;DHT22;3788;49.902;8.590;2022-11-20T16:32:42;6.90;99.90
7494;DHT22;3788;49.902;8.590;2022-11-20T16:35:10;6.90;99.90
7494;DHT22;3788;49.902;8.590;2022-11-20T16:37:37;6.90;99.90